sensor_id;sensor_type;location;lat;lon;timestamp;P1;durP1;ratioP1;P2;durP2;ratioP2
11642;SDS011;5877;50.930;6.918;2023-11-21T00:03:24;6.80;;;4.57;;
11642;SDS011;5877;50.930;6.918;2023-11-21T00:08:21;5.27;;;4.43;;
11642;SDS011;5877;50.930;6.918;2023-11-21T00:13:18;7.43;;;4.60;;
11642;SDS011;5877;50.930;6.918;2023-11-21T00:18:10;8.40;;;4.70;;
11642;SDS011;5877;50.930;6.918;2023-11-21T00:23:05;6.60;;;4.23;;
11642;SDS011;5877;50.930;6.918;2023-11-21T00:27:58;7.63;;;4.73;;
11642;SDS011;5877;50.930;6.918;2023-11-21T00:32:54;6.70;;;4.70;;
11642;SDS011;5877;50.930;6.918;2023-11-21T00:37:48;6.70;;;4.73;;
11642;SDS011;5877;50.930;6.918;2023-11-21T00:42:44;6.93;;;5.73;;
11642;SDS011;5877;50.930;6.918;2023-11-21T00:47:37;9.10;;;5.70;;
11642;SDS011;5877;50.930;6.918;2023-11-21T00:52:31;6.40;;;5.33;;
11642;SDS011;5877;50.930;6.918;2023-11-21T00:57:23;7.07;;;6.10;;
11642;SDS011;5877;50.930;6.918;2023-11-21T01:02:22;7.17;;;6.33;;
11642;SDS011;5877;50.930;6.918;2023-11-21T01:07:14;8.37;;;6.47;;
11642;SDS011;5877;50.930;6.918;2023-11-21T01:12:06;10.50;;;7.13;;
11642;SDS011;5877;50.930;6.918;2023-11-21T01:17:00;7.83;;;7.03;;
11642;SDS011;5877;50.930;6.918;2023-11-21T01:21:56;9.47;;;6.87;;
11642;SDS011;5877;50.930;6.918;2023-11-21T01:26:49;8.70;;;7.80;;
11642;SDS011;5877;50.930;6.918;2023-11-21T01:31:41;9.93;;;7.93;;
11642;SDS011;5877;50.930;6.918;2023-11-21T01:36:35;7.87;;;6.97;;
11642;SDS011;5877;50.930;6.918;2023-11-21T01:41:29;9.60;;;7.67;;
11642;SDS011;5877;50.930;6.918;2023-11-21T01:46:22;9.47;;;7.03;;
11642;SDS011;5877;50.930;6.918;2023-11-21T01:51:16;10.93;;;7.20;;
11642;SDS011;5877;50.930;6.918;2023-11-21T01:56:10;9.30;;;7.90;;
11642;SDS011;5877;50.930;6.918;2023-11-21T02:01:06;7.97;;;6.47;;
11642;SDS011;5877;50.930;6.918;2023-11-21T02:05:58;8.97;;;6.80;;
11642;SDS011;5877;50.930;6.918;2023-11-21T02:10:51;11.63;;;7.93;;
11642;SDS011;5877;50.930;6.918;2023-11-21T02:15:43;9.43;;;7.43;;
11642;SDS011;5877;50.930;6.918;2023-11-21T02:20:36;10.90;;;8.03;;
11642;SDS011;5877;50.930;6.918;2023-11-21T02:25:35;15.07;;;9.20;;
11642;SDS011;5877;50.930;6.918;2023-11-21T02:30:30;12.73;;;8.80;;
11642;SDS011;5877;50.930;6.918;2023-11-21T02:35:27;14.87;;;8.87;;
11642;SDS011;5877;50.930;6.918;2023-11-21T02:40:20;11.00;;;8.77;;
11642;SDS011;5877;50.930;6.918;2023-11-21T02:45:14;12.33;;;9.10;;
11642;SDS011;5877;50.930;6.918;2023-11-21T02:50:11;13.00;;;8.30;;
11642;SDS011;5877;50.930;6.918;2023-11-21T02:55:04;10.47;;;7.20;;
11642;SDS011;5877;50.930;6.918;2023-11-21T02:59:59;9.70;;;7.40;;
11642;SDS011;5877;50.930;6.918;2023-11-21T03:04:54;8.70;;;7.40;;
11642;SDS011;5877;50.930;6.918;2023-11-21T03:09:46;9.60;;;7.37;;
11642;SDS011;5877;50.930;6.918;2023-11-21T03:14:39;12.13;;;8.53;;
11642;SDS011;5877;50.930;6.918;2023-11-21T03:19:33;8.60;;;7.67;;
11642;SDS011;5877;50.930;6.918;2023-11-21T03:24:25;12.30;;;8.20;;
11642;SDS011;5877;50.930;6.918;2023-11-21T03:29:19;12.77;;;9.00;;
11642;SDS011;5877;50.930;6.918;2023-11-21T03:34:23;12.63;;;9.37;;
11642;SDS011;5877;50.930;6.918;2023-11-21T03:39:22;11.03;;;9.30;;
11642;SDS011;5877;50.930;6.918;2023-11-21T03:44:15;11.70;;;9.43;;
11642;SDS011;5877;50.930;6.918;2023-11-21T03:49:14;11.80;;;9.60;;
11642;SDS011;5877;50.930;6.918;2023-11-21T03:54:06;13.17;;;9.60;;
11642;SDS011;5877;50.930;6.918;2023-11-21T03:59:03;11.07;;;9.30;;
11642;SDS011;5877;50.930;6.918;2023-11-21T04:03:55;11.97;;;9.80;;
11642;SDS011;5877;50.930;6.918;2023-11-21T04:08:49;12.53;;;9.93;;
11642;SDS011;5877;50.930;6.918;2023-11-21T04:13:42;11.67;;;9.30;;
11642;SDS011;5877;50.930;6.918;2023-11-21T04:18:37;11.33;;;10.13;;
11642;SDS011;5877;50.930;6.918;2023-11-21T04:23:31;11.57;;;9.80;;
11642;SDS011;5877;50.930;6.918;2023-11-21T04:28:23;12.37;;;9.33;;
11642;SDS011;5877;50.930;6.918;2023-11-21T04:33:18;11.17;;;9.60;;
11642;SDS011;5877;50.930;6.918;2023-11-21T04:38:11;13.47;;;10.23;;
11642;SDS011;5877;50.930;6.918;2023-11-21T04:43:04;12.97;;;10.60;;
11642;SDS011;5877;50.930;6.918;2023-11-21T04:48:00;13.93;;;10.10;;
11642;SDS011;5877;50.930;6.918;2023-11-21T04:52:52;11.67;;;9.00;;
11642;SDS011;5877;50.930;6.918;2023-11-21T04:57:45;14.43;;;10.53;;
11642;SDS011;5877;50.930;6.918;2023-11-21T05:02:41;12.67;;;10.43;;
11642;SDS011;5877;50.930;6.918;2023-11-21T05:07:36;13.13;;;10.40;;
11642;SDS011;5877;50.930;6.918;2023-11-21T05:12:30;11.83;;;9.50;;
11642;SDS011;5877;50.930;6.918;2023-11-21T05:17:33;11.07;;;9.37;;
11642;SDS011;5877;50.930;6.918;2023-11-21T05:22:26;11.37;;;9.30;;
11642;SDS011;5877;50.930;6.918;2023-11-21T05:27:19;10.27;;;9.03;;
11642;SDS011;5877;50.930;6.918;2023-11-21T05:32:13;11.10;;;9.27;;
11642;SDS011;5877;50.930;6.918;2023-11-21T05:37:05;13.30;;;10.33;;
11642;SDS011;5877;50.930;6.918;2023-11-21T05:41:58;10.73;;;8.80;;
11642;SDS011;5877;50.930;6.918;2023-11-21T05:46:52;13.17;;;8.23;;
11642;SDS011;5877;50.930;6.918;2023-11-21T05:51:47;12.90;;;9.47;;
11642;SDS011;5877;50.930;6.918;2023-11-21T05:56:40;11.83;;;9.47;;
11642;SDS011;5877;50.930;6.918;2023-11-21T06:01:34;9.97;;;8.60;;
11642;SDS011;5877;50.930;6.918;2023-11-21T06:06:27;12.13;;;9.30;;
11642;SDS011;5877;50.930;6.918;2023-11-21T06:11:19;13.23;;;8.70;;
11642;SDS011;5877;50.930;6.918;2023-11-21T06:16:11;11.03;;;8.10;;
11642;SDS011;5877;50.930;6.918;2023-11-21T06:21:12;12.07;;;10.30;;
11642;SDS011;5877;50.930;6.918;2023-11-21T06:26:08;13.47;;;10.30;;
11642;SDS011;5877;50.930;6.918;2023-11-21T06:31:00;15.20;;;10.53;;
11642;SDS011;5877;50.930;6.918;2023-11-21T06:35:57;14.20;;;10.47;;
11642;SDS011;5877;50.930;6.918;2023-11-21T06:40:52;13.93;;;10.67;;
11642;SDS011;5877;50.930;6.918;2023-11-21T06:45:46;13.87;;;11.03;;
11642;SDS011;5877;50.930;6.918;2023-11-21T06:50:39;14.17;;;12.27;;
11642;SDS011;5877;50.930;6.918;2023-11-21T06:55:33;15.37;;;11.40;;
11642;SDS011;5877;50.930;6.918;2023-11-21T07:00:26;14.60;;;11.23;;
11642;SDS011;5877;50.930;6.918;2023-11-21T07:05:20;13.63;;;12.17;;
11642;SDS011;5877;50.930;6.918;2023-11-21T07:10:15;14.17;;;11.63;;
11642;SDS011;5877;50.930;6.918;2023-11-21T07:15:11;14.80;;;13.00;;
11642;SDS011;5877;50.930;6.918;2023-11-21T07:20:04;15.17;;;13.23;;
11642;SDS011;5877;50.930;6.918;2023-11-21T07:24:58;17.60;;;12.77;;
11642;SDS011;5877;50.930;6.918;2023-11-21T07:29:52;14.10;;;12.30;;
11642;SDS011;5877;50.930;6.918;2023-11-21T07:34:45;16.97;;;14.07;;
11642;SDS011;5877;50.930;6.918;2023-11-21T07:39:38;19.63;;;15.07;;
11642;SDS011;5877;50.930;6.918;2023-11-21T07:44:34;17.00;;;14.60;;
11642;SDS011;5877;50.930;6.918;2023-11-21T07:49:27;19.77;;;14.10;;
11642;SDS011;5877;50.930;6.918;2023-11-21T07:54:20;18.80;;;14.67;;
11642;SDS011;5877;50.930;6.918;2023-11-21T07:59:17;19.70;;;14.43;;
11642;SDS011;5877;50.930;6.918;2023-11-21T08:04:10;19.50;;;14.10;;
11642;SDS011;5877;50.930;6.918;2023-11-21T08:09:04;17.77;;;14.80;;
11642;SDS011;5877;50.930;6.918;2023-11-21T08:14:01;16.73;;;14.47;;
11642;SDS011;5877;50.930;6.918;2023-11-21T08:18:55;18.00;;;15.37;;
11642;SDS011;5877;50.930;6.918;2023-11-21T08:23:48;20.83;;;16.80;;
11642;SDS011;5877;50.930;6.918;2023-11-21T08:28:45;19.87;;;15.07;;
11642;SDS011;5877;50.930;6.918;2023-11-21T08:33:39;21.63;;;16.87;;
11642;SDS011;5877;50.930;6.918;2023-11-21T08:38:33;21.37;;;16.07;;
11642;SDS011;5877;50.930;6.918;2023-11-21T08:43:25;21.03;;;16.47;;
11642;SDS011;5877;50.930;6.918;2023-11-21T08:48:21;21.57;;;16.53;;
11642;SDS011;5877;50.930;6.918;2023-11-21T08:53:14;18.33;;;15.53;;
11642;SDS011;5877;50.930;6.918;2023-11-21T08:58:07;22.80;;;16.00;;
11642;SDS011;5877;50.930;6.918;2023-11-21T09:03:01;20.40;;;16.97;;
11642;SDS011;5877;50.930;6.918;2023-11-21T09:07:55;20.57;;;16.47;;
11642;SDS011;5877;50.930;6.918;2023-11-21T09:12:47;21.87;;;16.30;;
11642;SDS011;5877;50.930;6.918;2023-11-21T09:17:40;20.13;;;16.00;;
11642;SDS011;5877;50.930;6.918;2023-11-21T09:22:32;19.50;;;16.23;;
11642;SDS011;5877;50.930;6.918;2023-11-21T09:27:27;19.83;;;16.17;;
11642;SDS011;5877;50.930;6.918;2023-11-21T09:32:24;22.10;;;17.53;;
11642;SDS011;5877;50.930;6.918;2023-11-21T09:37:17;22.37;;;16.73;;
11642;SDS011;5877;50.930;6.918;2023-11-21T09:42:12;23.70;;;17.53;;
11642;SDS011;5877;50.930;6.918;2023-11-21T09:47:08;26.27;;;17.43;;
11642;SDS011;5877;50.930;6.918;2023-11-21T09:52:10;28.67;;;18.60;;
11642;SDS011;5877;50.930;6.918;2023-11-21T09:57:32;24.07;;;18.07;;
11642;SDS011;5877;50.930;6.918;2023-11-21T10:02:27;23.70;;;18.13;;
11642;SDS011;5877;50.930;6.918;2023-11-21T10:07:22;25.57;;;18.17;;
11642;SDS011;5877;50.930;6.918;2023-11-21T10:12:23;19.07;;;15.30;;
11642;SDS011;5877;50.930;6.918;2023-11-21T10:17:18;18.87;;;16.33;;
11642;SDS011;5877;50.930;6.918;2023-11-21T10:22:11;21.40;;;15.70;;
11642;SDS011;5877;50.930;6.918;2023-11-21T10:27:07;19.90;;;14.70;;
11642;SDS011;5877;50.930;6.918;2023-11-21T10:32:05;23.30;;;14.97;;
11642;SDS011;5877;50.930;6.918;2023-11-21T10:36:58;21.93;;;15.50;;
11642;SDS011;5877;50.930;6.918;2023-11-21T10:41:54;23.37;;;16.37;;
11642;SDS011;5877;50.930;6.918;2023-11-21T10:46:53;23.77;;;16.57;;
11642;SDS011;5877;50.930;6.918;2023-11-21T10:51:53;25.67;;;18.13;;
11642;SDS011;5877;50.930;6.918;2023-11-21T10:56:47;21.00;;;16.23;;
11642;SDS011;5877;50.930;6.918;2023-11-21T11:01:45;24.33;;;16.83;;
11642;SDS011;5877;50.930;6.918;2023-11-21T11:06:44;23.70;;;15.90;;
11642;SDS011;5877;50.930;6.918;2023-11-21T11:11:46;19.70;;;14.93;;
11642;SDS011;5877;50.930;6.918;2023-11-21T11:16:39;20.10;;;14.20;;
11642;SDS011;5877;50.930;6.918;2023-11-21T11:37:19;23.53;;;16.43;;
11642;SDS011;5877;50.930;6.918;2023-11-21T11:42:19;20.90;;;14.63;;
11642;SDS011;5877;50.930;6.918;2023-11-21T11:47:16;18.80;;;13.43;;
11642;SDS011;5877;50.930;6.918;2023-11-21T11:57:41;21.27;;;14.07;;
11642;SDS011;5877;50.930;6.918;2023-11-21T12:02:44;16.20;;;12.17;;
11642;SDS011;5877;50.930;6.918;2023-11-21T12:07:42;16.00;;;12.00;;
11642;SDS011;5877;50.930;6.918;2023-11-21T12:12:37;17.53;;;12.77;;
11642;SDS011;5877;50.930;6.918;2023-11-21T12:17:49;19.13;;;12.33;;
11642;SDS011;5877;50.930;6.918;2023-11-21T12:22:43;15.47;;;11.63;;
11642;SDS011;5877;50.930;6.918;2023-11-21T12:27:42;21.40;;;13.73;;
11642;SDS011;5877;50.930;6.918;2023-11-21T12:32:37;20.07;;;14.53;;
11642;SDS011;5877;50.930;6.918;2023-11-21T12:37:36;18.53;;;13.40;;
11642;SDS011;5877;50.930;6.918;2023-11-21T12:42:32;18.53;;;12.97;;
11642;SDS011;5877;50.930;6.918;2023-11-21T12:47:31;19.23;;;11.23;;
11642;SDS011;5877;50.930;6.918;2023-11-21T12:52:28;18.97;;;12.00;;
11642;SDS011;5877;50.930;6.918;2023-11-21T12:57:20;18.73;;;13.80;;
11642;SDS011;5877;50.930;6.918;2023-11-21T13:02:21;25.27;;;17.70;;
11642;SDS011;5877;50.930;6.918;2023-11-21T13:07:13;27.37;;;20.33;;
11642;SDS011;5877;50.930;6.918;2023-11-21T13:12:07;29.03;;;19.50;;
11642;SDS011;5877;50.930;6.918;2023-11-21T13:17:01;28.80;;;20.07;;
11642;SDS011;5877;50.930;6.918;2023-11-21T13:22:00;25.17;;;18.27;;
11642;SDS011;5877;50.930;6.918;2023-11-21T13:26:55;25.97;;;17.60;;
11642;SDS011;5877;50.930;6.918;2023-11-21T13:31:50;28.23;;;18.97;;
11642;SDS011;5877;50.930;6.918;2023-11-21T13:36:43;27.73;;;18.33;;
11642;SDS011;5877;50.930;6.918;2023-11-21T13:41:38;25.67;;;19.17;;
11642;SDS011;5877;50.930;6.918;2023-11-21T13:46:31;26.87;;;20.03;;
11642;SDS011;5877;50.930;6.918;2023-11-21T13:51:33;33.20;;;20.37;;
11642;SDS011;5877;50.930;6.918;2023-11-21T13:56:32;31.77;;;20.80;;
11642;SDS011;5877;50.930;6.918;2023-11-21T14:01:25;29.97;;;19.93;;
11642;SDS011;5877;50.930;6.918;2023-11-21T14:06:25;28.67;;;17.97;;
11642;SDS011;5877;50.930;6.918;2023-11-21T14:11:24;31.57;;;19.47;;
11642;SDS011;5877;50.930;6.918;2023-11-21T14:16:28;26.23;;;17.53;;
11642;SDS011;5877;50.930;6.918;2023-11-21T14:21:23;23.17;;;15.63;;
11642;SDS011;5877;50.930;6.918;2023-11-21T14:26:16;22.23;;;14.43;;
11642;SDS011;5877;50.930;6.918;2023-11-21T14:31:08;22.10;;;15.23;;
11642;SDS011;5877;50.930;6.918;2023-11-21T14:36:07;23.67;;;15.00;;
11642;SDS011;5877;50.930;6.918;2023-11-21T14:41:02;25.20;;;15.50;;
11642;SDS011;5877;50.930;6.918;2023-11-21T14:45:55;22.53;;;13.47;;
11642;SDS011;5877;50.930;6.918;2023-11-21T14:50:56;24.83;;;14.80;;
11642;SDS011;5877;50.930;6.918;2023-11-21T14:55:57;22.47;;;12.40;;
11642;SDS011;5877;50.930;6.918;2023-11-21T15:00:58;21.57;;;12.67;;
11642;SDS011;5877;50.930;6.918;2023-11-21T15:05:52;19.57;;;11.93;;
11642;SDS011;5877;50.930;6.918;2023-11-21T15:10:46;21.77;;;12.90;;
11642;SDS011;5877;50.930;6.918;2023-11-21T15:15:42;23.87;;;13.10;;
11642;SDS011;5877;50.930;6.918;2023-11-21T15:20:34;25.70;;;13.17;;
11642;SDS011;5877;50.930;6.918;2023-11-21T15:25:27;23.20;;;15.13;;
11642;SDS011;5877;50.930;6.918;2023-11-21T15:30:20;21.80;;;13.03;;
11642;SDS011;5877;50.930;6.918;2023-11-21T15:35:16;23.07;;;14.27;;
11642;SDS011;5877;50.930;6.918;2023-11-21T15:40:09;27.17;;;14.77;;
11642;SDS011;5877;50.930;6.918;2023-11-21T15:45:05;27.20;;;15.23;;
11642;SDS011;5877;50.930;6.918;2023-11-21T15:49:59;25.47;;;16.87;;
11642;SDS011;5877;50.930;6.918;2023-11-21T15:54:54;25.73;;;17.03;;
11642;SDS011;5877;50.930;6.918;2023-11-21T15:59:46;28.83;;;18.57;;
11642;SDS011;5877;50.930;6.918;2023-11-21T16:04:39;23.83;;;15.77;;
11642;SDS011;5877;50.930;6.918;2023-11-21T16:09:33;24.17;;;14.83;;
11642;SDS011;5877;50.930;6.918;2023-11-21T16:14:25;20.50;;;14.53;;
11642;SDS011;5877;50.930;6.918;2023-11-21T16:19:21;19.97;;;13.30;;
11642;SDS011;5877;50.930;6.918;2023-11-21T16:24:14;16.37;;;11.90;;
11642;SDS011;5877;50.930;6.918;2023-11-21T16:29:07;18.70;;;11.83;;
11642;SDS011;5877;50.930;6.918;2023-11-21T16:34:00;14.67;;;10.97;;
11642;SDS011;5877;50.930;6.918;2023-11-21T16:38:59;13.53;;;10.63;;
11642;SDS011;5877;50.930;6.918;2023-11-21T16:43:55;13.50;;;10.10;;
11642;SDS011;5877;50.930;6.918;2023-11-21T16:48:48;11.33;;;10.13;;
11642;SDS011;5877;50.930;6.918;2023-11-21T16:53:40;12.73;;;10.10;;
11642;SDS011;5877;50.930;6.918;2023-11-21T16:58:34;12.63;;;10.63;;
11642;SDS011;5877;50.930;6.918;2023-11-21T17:03:29;12.50;;;10.10;;
11642;SDS011;5877;50.930;6.918;2023-11-21T17:08:25;12.63;;;10.37;;
11642;SDS011;5877;50.930;6.918;2023-11-21T17:13:19;10.83;;;9.20;;
11642;SDS011;5877;50.930;6.918;2023-11-21T17:18:11;10.43;;;9.00;;
11642;SDS011;5877;50.930;6.918;2023-11-21T17:23:10;12.57;;;9.83;;
11642;SDS011;5877;50.930;6.918;2023-11-21T17:28:05;11.90;;;8.80;;
11642;SDS011;5877;50.930;6.918;2023-11-21T17:32:59;9.40;;;8.40;;
11642;SDS011;5877;50.930;6.918;2023-11-21T17:37:53;11.10;;;9.10;;
11642;SDS011;5877;50.930;6.918;2023-11-21T17:42:45;10.60;;;8.87;;
11642;SDS011;5877;50.930;6.918;2023-11-21T17:47:39;10.33;;;9.30;;
11642;SDS011;5877;50.930;6.918;2023-11-21T17:52:32;10.47;;;9.37;;
11642;SDS011;5877;50.930;6.918;2023-11-21T17:57:27;12.23;;;8.93;;
11642;SDS011;5877;50.930;6.918;2023-11-21T18:02:20;10.23;;;9.13;;
11642;SDS011;5877;50.930;6.918;2023-11-21T18:07:14;10.67;;;9.63;;
11642;SDS011;5877;50.930;6.918;2023-11-21T18:12:13;11.97;;;10.70;;
11642;SDS011;5877;50.930;6.918;2023-11-21T18:17:07;13.43;;;10.43;;
11642;SDS011;5877;50.930;6.918;2023-11-21T18:22:01;12.07;;;10.87;;
11642;SDS011;5877;50.930;6.918;2023-11-21T18:26:54;11.47;;;10.37;;
11642;SDS011;5877;50.930;6.918;2023-11-21T18:31:50;10.20;;;9.20;;
11642;SDS011;5877;50.930;6.918;2023-11-21T18:36:44;8.83;;;8.03;;
11642;SDS011;5877;50.930;6.918;2023-11-21T18:41:37;7.90;;;7.10;;
11642;SDS011;5877;50.930;6.918;2023-11-21T18:46:40;7.07;;;6.37;;
11642;SDS011;5877;50.930;6.918;2023-11-21T18:51:32;6.90;;;6.20;;
11642;SDS011;5877;50.930;6.918;2023-11-21T18:56:27;15.70;;;5.67;;
11642;SDS011;5877;50.930;6.918;2023-11-21T19:01:24;4.07;;;3.67;;
11642;SDS011;5877;50.930;6.918;2023-11-21T19:06:23;3.93;;;3.57;;
11642;SDS011;5877;50.930;6.918;2023-11-21T19:11:17;3.67;;;3.37;;
11642;SDS011;5877;50.930;6.918;2023-11-21T19:16:12;5.00;;;3.50;;
11642;SDS011;5877;50.930;6.918;2023-11-21T19:21:13;3.97;;;3.63;;
11642;SDS011;5877;50.930;6.918;2023-11-21T19:26:08;4.43;;;4.03;;
11642;SDS011;5877;50.930;6.918;2023-11-21T19:31:03;4.87;;;3.80;;
11642;SDS011;5877;50.930;6.918;2023-11-21T19:36:23;4.53;;;4.10;;
11642;SDS011;5877;50.930;6.918;2023-11-21T19:41:17;5.00;;;4.50;;
11642;SDS011;5877;50.930;6.918;2023-11-21T19:46:12;4.20;;;3.83;;
11642;SDS011;5877;50.930;6.918;2023-11-21T19:51:07;4.83;;;3.87;;
11642;SDS011;5877;50.930;6.918;2023-11-21T19:56:10;4.13;;;3.83;;
11642;SDS011;5877;50.930;6.918;2023-11-21T20:01:07;4.60;;;4.20;;
11642;SDS011;5877;50.930;6.918;2023-11-21T20:06:05;5.23;;;4.73;;
11642;SDS011;5877;50.930;6.918;2023-11-21T20:11:04;4.23;;;3.83;;
11642;SDS011;5877;50.930;6.918;2023-11-21T20:16:01;4.73;;;4.23;;
11642;SDS011;5877;50.930;6.918;2023-11-21T20:20:56;4.53;;;4.10;;
11642;SDS011;5877;50.930;6.918;2023-11-21T20:25:55;5.17;;;4.60;;
11642;SDS011;5877;50.930;6.918;2023-11-21T20:30:51;17.00;;;7.47;;
11642;SDS011;5877;50.930;6.918;2023-11-21T20:35:47;5.23;;;4.60;;
11642;SDS011;5877;50.930;6.918;2023-11-21T20:40:40;5.70;;;5.03;;
11642;SDS011;5877;50.930;6.918;2023-11-21T20:45:33;5.57;;;5.07;;
11642;SDS011;5877;50.930;6.918;2023-11-21T20:50:31;6.20;;;5.33;;
11642;SDS011;5877;50.930;6.918;2023-11-21T20:55:23;5.20;;;4.70;;
11642;SDS011;5877;50.930;6.918;2023-11-21T21:00:22;7.00;;;5.63;;
11642;SDS011;5877;50.930;6.918;2023-11-21T21:05:20;6.03;;;5.40;;
11642;SDS011;5877;50.930;6.918;2023-11-21T21:10:17;5.50;;;5.00;;
11642;SDS011;5877;50.930;6.918;2023-11-21T21:15:12;7.83;;;6.10;;
11642;SDS011;5877;50.930;6.918;2023-11-21T21:20:05;7.47;;;6.67;;
11642;SDS011;5877;50.930;6.918;2023-11-21T21:24:58;8.17;;;6.50;;
11642;SDS011;5877;50.930;6.918;2023-11-21T21:29:54;7.50;;;6.70;;
11642;SDS011;5877;50.930;6.918;2023-11-21T21:34:51;6.87;;;6.27;;
11642;SDS011;5877;50.930;6.918;2023-11-21T21:39:57;7.47;;;6.70;;
11642;SDS011;5877;50.930;6.918;2023-11-21T21:44:53;6.97;;;6.27;;
11642;SDS011;5877;50.930;6.918;2023-11-21T21:49:50;7.90;;;7.10;;
11642;SDS011;5877;50.930;6.918;2023-11-21T21:54:50;7.67;;;6.97;;
11642;SDS011;5877;50.930;6.918;2023-11-21T21:59:47;7.63;;;6.63;;
11642;SDS011;5877;50.930;6.918;2023-11-21T22:04:52;8.07;;;6.53;;
11642;SDS011;5877;50.930;6.918;2023-11-21T22:09:48;6.97;;;6.27;;
11642;SDS011;5877;50.930;6.918;2023-11-21T22:14:58;7.13;;;6.30;;
11642;SDS011;5877;50.930;6.918;2023-11-21T22:20:15;7.07;;;6.47;;
11642;SDS011;5877;50.930;6.918;2023-11-21T22:25:28;6.97;;;6.37;;
11642;SDS011;5877;50.930;6.918;2023-11-21T22:30:31;6.87;;;5.93;;
11642;SDS011;5877;50.930;6.918;2023-11-21T22:35:23;6.83;;;5.73;;
11642;SDS011;5877;50.930;6.918;2023-11-21T22:40:37;6.00;;;5.40;;
11642;SDS011;5877;50.930;6.918;2023-11-21T22:45:29;6.90;;;6.30;;
11642;SDS011;5877;50.930;6.918;2023-11-21T22:50:25;8.20;;;7.40;;
11642;SDS011;5877;50.930;6.918;2023-11-21T22:55:20;8.00;;;7.30;;
11642;SDS011;5877;50.930;6.918;2023-11-21T23:00:17;7.87;;;7.10;;
11642;SDS011;5877;50.930;6.918;2023-11-21T23:05:16;7.57;;;6.87;;
11642;SDS011;5877;50.930;6.918;2023-11-21T23:10:18;7.70;;;7.00;;
11642;SDS011;5877;50.930;6.918;2023-11-21T23:16:03;8.37;;;6.93;;
11642;SDS011;5877;50.930;6.918;2023-11-21T23:20:58;8.33;;;7.27;;
11642;SDS011;5877;50.930;6.918;2023-11-21T23:26:16;7.87;;;7.10;;
11642;SDS011;5877;50.930;6.918;2023-11-21T23:31:11;8.47;;;7.60;;
11642;SDS011;5877;50.930;6.918;2023-11-21T23:36:05;8.97;;;8.07;;
11642;SDS011;5877;50.930;6.918;2023-11-21T23:41:43;9.57;;;8.67;;
11642;SDS011;5877;50.930;6.918;2023-11-21T23:46:50;9.13;;;8.33;;
11642;SDS011;5877;50.930;6.918;2023-11-21T23:51:48;9.40;;;8.50;;
11642;SDS011;5877;50.930;6.918;2023-11-21T23:56:44;10.27;;;8.70;;
